sensor_id;sensor_type;location;lat;lon;timestamp;temperature;humidity
28654;DHT22;24320;56.980;24.336;2023-03-12T00:00:03;-1.50;99.90
28654;DHT22;24320;56.980;24.336;2023-03-12T00:02:34;-1.40;99.90
28654;DHT22;24320;56.980;24.336;2023-03-12T00:05:01;-1.50;99.90
28654;DHT22;24320;56.980;24.336;2023-03-12T00:07:28;-1.40;99.90
28654;DHT22;24320;56.980;24.336;2023-03-12T00:09:55;-1.40;99.90
28654;DHT22;24320;56.980;24.336;2023-03-12T00:12:22;-1.50;99.90
28654;DHT22;24320;56.980;24.336;2023-03-12T00:14:49;-1.50;99.90
28654;DHT22;24320;56.980;24.336;2023-03-12T00:17:16;-1.40;99.90
28654;DHT22;24320;56.980;24.336;2023-03-12T00:19:43;-1.40;99.90
28654;DHT22;24320;56.980;24.336;2023-03-12T00:22:11;-1.40;99.90
28654;DHT22;24320;56.980;24.336;2023-03-12T00:27:17;-1.40;99.90
28654;DHT22;24320;56.980;24.336;2023-03-12T00:29:44;-1.40;99.90
28654;DHT22;24320;56.980;24.336;2023-03-12T00:32:11;-1.40;99.90
28654;DHT22;24320;56.980;24.336;2023-03-12T00:34:38;-1.40;99.90
28654;DHT22;24320;56.980;24.336;2023-03-12T00:37:05;-1.40;99.90
28654;DHT22;24320;56.980;24.336;2023-03-12T00:39:34;-1.50;99.90
28654;DHT22;24320;56.980;24.336;2023-03-12T00:42:01;-1.50;99.90
28654;DHT22;24320;56.980;24.336;2023-03-12T00:44:28;-1.60;99.90
28654;DHT22;24320;56.980;24.336;2023-03-12T00:46:55;-1.60;99.90
28654;DHT22;24320;56.980;24.336;2023-03-12T00:49:22;-1.70;99.90
28654;DHT22;24320;56.980;24.336;2023-03-12T00:51:49;-1.70;99.90
28654;DHT22;24320;56.980;24.336;2023-03-12T00:54:16;-1.70;99.90
28654;DHT22;24320;56.980;24.336;2023-03-12T00:56:43;-1.80;99.90
28654;DHT22;24320;56.980;24.336;2023-03-12T00:59:13;-1.90;99.90
28654;DHT22;24320;56.980;24.336;2023-03-12T01:01:40;-1.90;99.90
28654;DHT22;24320;56.980;24.336;2023-03-12T01:04:08;-2.00;99.90
28654;DHT22;24320;56.980;24.336;2023-03-12T01:06:35;-2.00;99.90
28654;DHT22;24320;56.980;24.336;2023-03-12T01:09:03;-2.00;99.90
28654;DHT22;24320;56.980;24.336;2023-03-12T01:11:31;-2.00;99.90
28654;DHT22;24320;56.980;24.336;2023-03-12T01:13:59;-2.00;99.90
28654;DHT22;24320;56.980;24.336;2023-03-12T01:16:27;-2.10;99.90
28654;DHT22;24320;56.980;24.336;2023-03-12T01:18:57;-2.10;99.90
28654;DHT22;24320;56.980;24.336;2023-03-12T01:21:25;-2.20;99.90
28654;DHT22;24320;56.980;24.336;2023-03-12T01:23:53;-2.20;99.90
28654;DHT22;24320;56.980;24.336;2023-03-12T01:26:20;-2.20;99.90
28654;DHT22;24320;56.980;24.336;2023-03-12T01:28:47;-2.20;99.90
28654;DHT22;24320;56.980;24.336;2023-03-12T01:31:16;-2.30;99.90
28654;DHT22;24320;56.980;24.336;2023-03-12T01:33:48;-2.30;99.90
28654;DHT22;24320;56.980;24.336;2023-03-12T01:36:19;-2.30;99.90
28654;DHT22;24320;56.980;24.336;2023-03-12T01:38:46;-2.30;99.90
28654;DHT22;24320;56.980;24.336;2023-03-12T01:41:13;-2.40;99.90
28654;DHT22;24320;56.980;24.336;2023-03-12T01:43:41;-2.40;99.90
28654;DHT22;24320;56.980;24.336;2023-03-12T01:46:25;-2.40;99.90
28654;DHT22;24320;56.980;24.336;2023-03-12T01:49:03;-2.40;99.90
28654;DHT22;24320;56.980;24.336;2023-03-12T01:51:45;-2.40;99.90
28654;DHT22;24320;56.980;24.336;2023-03-12T01:56:55;-2.50;99.90
28654;DHT22;24320;56.980;24.336;2023-03-12T01:59:29;-2.50;99.90
28654;DHT22;24320;56.980;24.336;2023-03-12T02:01:57;-2.60;99.90
28654;DHT22;24320;56.980;24.336;2023-03-12T02:04:26;-2.60;99.90
28654;DHT22;24320;56.980;24.336;2023-03-12T02:07:09;-2.70;99.90
28654;DHT22;24320;56.980;24.336;2023-03-12T02:12:58;-2.60;99.90
28654;DHT22;24320;56.980;24.336;2023-03-12T02:15:25;-2.70;99.90
28654;DHT22;24320;56.980;24.336;2023-03-12T02:17:53;-2.70;99.90
28654;DHT22;24320;56.980;24.336;2023-03-12T02:20:52;-2.70;99.90
28654;DHT22;24320;56.980;24.336;2023-03-12T02:26:19;-2.80;99.90
28654;DHT22;24320;56.980;24.336;2023-03-12T02:28:48;-2.90;99.90
28654;DHT22;24320;56.980;24.336;2023-03-12T02:31:22;-2.90;99.90
28654;DHT22;24320;56.980;24.336;2023-03-12T02:33:50;-2.90;99.90
28654;DHT22;24320;56.980;24.336;2023-03-12T02:36:19;-3.00;99.90
28654;DHT22;24320;56.980;24.336;2023-03-12T02:38:48;-3.10;99.90
28654;DHT22;24320;56.980;24.336;2023-03-12T02:41:31;-3.20;99.90
28654;DHT22;24320;56.980;24.336;2023-03-12T02:44:03;-3.20;99.90
28654;DHT22;24320;56.980;24.336;2023-03-12T02:46:34;-3.30;99.90
28654;DHT22;24320;56.980;24.336;2023-03-12T02:49:02;-3.40;99.90
28654;DHT22;24320;56.980;24.336;2023-03-12T02:51:30;-3.50;99.90
28654;DHT22;24320;56.980;24.336;2023-03-12T02:53:57;-3.60;99.90
28654;DHT22;24320;56.980;24.336;2023-03-12T02:56:25;-3.70;99.90
28654;DHT22;24320;56.980;24.336;2023-03-12T02:58:52;-3.70;99.90
28654;DHT22;24320;56.980;24.336;2023-03-12T03:01:20;-3.80;99.90
28654;DHT22;24320;56.980;24.336;2023-03-12T03:03:47;-3.90;99.90
28654;DHT22;24320;56.980;24.336;2023-03-12T03:06:15;-3.90;99.90
28654;DHT22;24320;56.980;24.336;2023-03-12T03:08:42;-4.00;99.90
28654;DHT22;24320;56.980;24.336;2023-03-12T03:11:09;-4.10;99.90
28654;DHT22;24320;56.980;24.336;2023-03-12T03:13:37;-4.20;99.90
28654;DHT22;24320;56.980;24.336;2023-03-12T03:16:05;-4.20;99.90
28654;DHT22;24320;56.980;24.336;2023-03-12T03:18:32;-4.30;99.90
28654;DHT22;24320;56.980;24.336;2023-03-12T03:21:04;-4.40;99.90
28654;DHT22;24320;56.980;24.336;2023-03-12T03:23:32;-4.30;99.90
28654;DHT22;24320;56.980;24.336;2023-03-12T03:26:01;-4.30;99.90
28654;DHT22;24320;56.980;24.336;2023-03-12T03:28:29;-4.30;99.90
28654;DHT22;24320;56.980;24.336;2023-03-12T03:30:57;-4.30;99.90
28654;DHT22;24320;56.980;24.336;2023-03-12T03:33:28;-4.30;99.90
28654;DHT22;24320;56.980;24.336;2023-03-12T03:35:56;-4.40;99.90
28654;DHT22;24320;56.980;24.336;2023-03-12T03:38:26;-4.50;99.90
28654;DHT22;24320;56.980;24.336;2023-03-12T03:40:54;-4.60;99.90
28654;DHT22;24320;56.980;24.336;2023-03-12T03:43:21;-4.70;99.90
28654;DHT22;24320;56.980;24.336;2023-03-12T03:45:58;-4.80;99.90
28654;DHT22;24320;56.980;24.336;2023-03-12T03:48:26;-4.80;99.90
28654;DHT22;24320;56.980;24.336;2023-03-12T03:50:53;-4.80;99.90
28654;DHT22;24320;56.980;24.336;2023-03-12T03:53:20;-4.90;99.90
28654;DHT22;24320;56.980;24.336;2023-03-12T03:55:47;-4.90;99.90
28654;DHT22;24320;56.980;24.336;2023-03-12T03:58:14;-4.90;99.90
28654;DHT22;24320;56.980;24.336;2023-03-12T04:00:44;-4.90;99.90
28654;DHT22;24320;56.980;24.336;2023-03-12T04:03:11;-5.00;99.90
28654;DHT22;24320;56.980;24.336;2023-03-12T04:05:40;-5.00;99.90
28654;DHT22;24320;56.980;24.336;2023-03-12T04:08:12;-5.10;99.90
28654;DHT22;24320;56.980;24.336;2023-03-12T04:10:39;-5.00;99.90
28654;DHT22;24320;56.980;24.336;2023-03-12T04:13:06;-5.10;99.90
28654;DHT22;24320;56.980;24.336;2023-03-12T04:15:33;-5.10;99.90
28654;DHT22;24320;56.980;24.336;2023-03-12T04:18:00;-5.10;99.90
28654;DHT22;24320;56.980;24.336;2023-03-12T04:20:27;-5.00;99.90
28654;DHT22;24320;56.980;24.336;2023-03-12T04:22:54;-4.90;99.90
28654;DHT22;24320;56.980;24.336;2023-03-12T04:25:21;-4.70;99.90
28654;DHT22;24320;56.980;24.336;2023-03-12T04:27:48;-4.60;99.90
28654;DHT22;24320;56.980;24.336;2023-03-12T04:30:15;-4.40;99.90
28654;DHT22;24320;56.980;24.336;2023-03-12T04:32:42;-4.30;99.90
28654;DHT22;24320;56.980;24.336;2023-03-12T04:35:09;-4.20;99.90
28654;DHT22;24320;56.980;24.336;2023-03-12T04:37:36;-4.00;99.90
28654;DHT22;24320;56.980;24.336;2023-03-12T04:40:03;-3.90;99.90
28654;DHT22;24320;56.980;24.336;2023-03-12T04:42:34;-3.80;99.90
28654;DHT22;24320;56.980;24.336;2023-03-12T04:45:02;-3.70;99.90
28654;DHT22;24320;56.980;24.336;2023-03-12T04:47:31;-3.60;99.90
28654;DHT22;24320;56.980;24.336;2023-03-12T04:49:59;-3.60;99.90
28654;DHT22;24320;56.980;24.336;2023-03-12T04:52:26;-3.60;99.90
28654;DHT22;24320;56.980;24.336;2023-03-12T04:54:56;-3.60;99.90
28654;DHT22;24320;56.980;24.336;2023-03-12T04:57:25;-3.50;99.90
28654;DHT22;24320;56.980;24.336;2023-03-12T04:59:52;-3.60;99.90
28654;DHT22;24320;56.980;24.336;2023-03-12T05:02:19;-3.50;99.90
28654;DHT22;24320;56.980;24.336;2023-03-12T05:04:47;-3.50;99.90
28654;DHT22;24320;56.980;24.336;2023-03-12T05:07:14;-3.40;99.90
28654;DHT22;24320;56.980;24.336;2023-03-12T05:09:40;-3.40;99.90
28654;DHT22;24320;56.980;24.336;2023-03-12T05:12:09;-3.40;99.90
28654;DHT22;24320;56.980;24.336;2023-03-12T05:14:36;-3.40;99.90
28654;DHT22;24320;56.980;24.336;2023-03-12T05:17:05;-3.40;99.90
28654;DHT22;24320;56.980;24.336;2023-03-12T05:19:32;-3.40;99.90
28654;DHT22;24320;56.980;24.336;2023-03-12T05:21:59;-3.40;99.90
28654;DHT22;24320;56.980;24.336;2023-03-12T05:24:26;-3.40;99.90
28654;DHT22;24320;56.980;24.336;2023-03-12T05:26:54;-3.40;99.90
28654;DHT22;24320;56.980;24.336;2023-03-12T05:29:21;-3.40;99.90
28654;DHT22;24320;56.980;24.336;2023-03-12T05:31:48;-3.50;99.90
28654;DHT22;24320;56.980;24.336;2023-03-12T05:34:15;-3.50;99.90
28654;DHT22;24320;56.980;24.336;2023-03-12T05:36:43;-3.50;99.90
28654;DHT22;24320;56.980;24.336;2023-03-12T05:39:10;-3.50;99.90
28654;DHT22;24320;56.980;24.336;2023-03-12T05:41:37;-3.50;99.90
28654;DHT22;24320;56.980;24.336;2023-03-12T05:44:04;-3.30;99.90
28654;DHT22;24320;56.980;24.336;2023-03-12T05:46:32;-3.30;99.90
28654;DHT22;24320;56.980;24.336;2023-03-12T05:48:58;-3.20;99.90
28654;DHT22;24320;56.980;24.336;2023-03-12T05:51:25;-3.20;99.90
28654;DHT22;24320;56.980;24.336;2023-03-12T05:53:52;-3.30;99.90
28654;DHT22;24320;56.980;24.336;2023-03-12T05:56:19;-3.30;99.90
28654;DHT22;24320;56.980;24.336;2023-03-12T05:58:47;-3.30;99.90
28654;DHT22;24320;56.980;24.336;2023-03-12T06:01:18;-3.20;99.90
28654;DHT22;24320;56.980;24.336;2023-03-12T06:03:46;-3.00;99.90
28654;DHT22;24320;56.980;24.336;2023-03-12T06:06:13;-2.80;99.90
28654;DHT22;24320;56.980;24.336;2023-03-12T06:08:41;-2.60;99.90
28654;DHT22;24320;56.980;24.336;2023-03-12T06:11:08;-2.40;99.90
28654;DHT22;24320;56.980;24.336;2023-03-12T06:13:36;-2.30;99.90
28654;DHT22;24320;56.980;24.336;2023-03-12T06:16:08;-2.00;99.90
28654;DHT22;24320;56.980;24.336;2023-03-12T06:18:37;-1.50;99.90
28654;DHT22;24320;56.980;24.336;2023-03-12T06:21:18;-0.90;99.90
28654;DHT22;24320;56.980;24.336;2023-03-12T06:23:45;-0.40;99.90
28654;DHT22;24320;56.980;24.336;2023-03-12T06:26:13;-0.30;99.90
28654;DHT22;24320;56.980;24.336;2023-03-12T06:28:41;-0.40;99.90
28654;DHT22;24320;56.980;24.336;2023-03-12T06:31:08;-0.70;99.90
28654;DHT22;24320;56.980;24.336;2023-03-12T06:33:35;-0.90;99.90
28654;DHT22;24320;56.980;24.336;2023-03-12T06:36:04;-0.90;99.90
28654;DHT22;24320;56.980;24.336;2023-03-12T06:38:32;-0.90;99.90
28654;DHT22;24320;56.980;24.336;2023-03-12T06:41:05;-0.80;99.90
28654;DHT22;24320;56.980;24.336;2023-03-12T06:43:34;-0.70;99.90
28654;DHT22;24320;56.980;24.336;2023-03-12T06:46:02;-0.70;99.90
28654;DHT22;24320;56.980;24.336;2023-03-12T06:48:31;-0.70;99.90
28654;DHT22;24320;56.980;24.336;2023-03-12T06:51:03;-0.90;99.90
28654;DHT22;24320;56.980;24.336;2023-03-12T06:53:31;-1.10;99.90
28654;DHT22;24320;56.980;24.336;2023-03-12T06:55:58;-1.20;99.90
28654;DHT22;24320;56.980;24.336;2023-03-12T06:58:25;-1.40;99.90
28654;DHT22;24320;56.980;24.336;2023-03-12T07:00:52;-0.90;99.90
28654;DHT22;24320;56.980;24.336;2023-03-12T07:03:20;0.30;99.90
28654;DHT22;24320;56.980;24.336;2023-03-12T07:05:48;1.70;99.90
28654;DHT22;24320;56.980;24.336;2023-03-12T07:08:17;2.80;99.90
28654;DHT22;24320;56.980;24.336;2023-03-12T07:10:45;3.60;99.90
28654;DHT22;24320;56.980;24.336;2023-03-12T07:13:12;4.20;99.90
28654;DHT22;24320;56.980;24.336;2023-03-12T07:15:39;4.80;99.90
28654;DHT22;24320;56.980;24.336;2023-03-12T07:18:08;5.30;99.90
28654;DHT22;24320;56.980;24.336;2023-03-12T07:20:37;5.70;99.90
28654;DHT22;24320;56.980;24.336;2023-03-12T07:23:05;6.30;99.90
28654;DHT22;24320;56.980;24.336;2023-03-12T07:25:36;6.60;99.90
28654;DHT22;24320;56.980;24.336;2023-03-12T07:28:04;7.10;99.90
28654;DHT22;24320;56.980;24.336;2023-03-12T07:30:31;7.40;99.90
28654;DHT22;24320;56.980;24.336;2023-03-12T07:33:07;7.60;98.10
28654;DHT22;24320;56.980;24.336;2023-03-12T07:35:35;7.80;96.70
28654;DHT22;24320;56.980;24.336;2023-03-12T07:38:02;7.80;94.90
28654;DHT22;24320;56.980;24.336;2023-03-12T07:40:29;7.90;94.40
28654;DHT22;24320;56.980;24.336;2023-03-12T07:42:57;7.70;93.70
28654;DHT22;24320;56.980;24.336;2023-03-12T07:45:24;7.50;93.80
28654;DHT22;24320;56.980;24.336;2023-03-12T07:47:51;7.50;93.50
28654;DHT22;24320;56.980;24.336;2023-03-12T07:50:18;7.10;93.50
28654;DHT22;24320;56.980;24.336;2023-03-12T07:52:46;6.50;94.40
28654;DHT22;24320;56.980;24.336;2023-03-12T07:55:13;6.10;95.10
28654;DHT22;24320;56.980;24.336;2023-03-12T07:57:42;5.90;96.30
28654;DHT22;24320;56.980;24.336;2023-03-12T08:00:09;5.70;96.80
28654;DHT22;24320;56.980;24.336;2023-03-12T08:02:37;5.60;97.90
28654;DHT22;24320;56.980;24.336;2023-03-12T08:05:04;5.60;97.60
28654;DHT22;24320;56.980;24.336;2023-03-12T08:07:32;5.30;98.10
28654;DHT22;24320;56.980;24.336;2023-03-12T08:10:03;5.20;98.60
28654;DHT22;24320;56.980;24.336;2023-03-12T08:12:31;5.20;99.80
28654;DHT22;24320;56.980;24.336;2023-03-12T08:14:58;5.30;99.20
28654;DHT22;24320;56.980;24.336;2023-03-12T08:17:25;5.40;98.80
28654;DHT22;24320;56.980;24.336;2023-03-12T08:19:52;5.50;98.90
28654;DHT22;24320;56.980;24.336;2023-03-12T08:22:19;5.40;99.20
28654;DHT22;24320;56.980;24.336;2023-03-12T08:24:46;5.30;99.50
28654;DHT22;24320;56.980;24.336;2023-03-12T08:27:13;5.30;99.70
28654;DHT22;24320;56.980;24.336;2023-03-12T08:29:40;5.30;99.90
28654;DHT22;24320;56.980;24.336;2023-03-12T08:32:08;5.30;99.70
28654;DHT22;24320;56.980;24.336;2023-03-12T08:34:36;5.30;99.90
28654;DHT22;24320;56.980;24.336;2023-03-12T08:39:44;5.40;99.90
28654;DHT22;24320;56.980;24.336;2023-03-12T08:42:11;5.20;99.90
28654;DHT22;24320;56.980;24.336;2023-03-12T08:44:38;5.00;99.90
28654;DHT22;24320;56.980;24.336;2023-03-12T08:47:05;4.80;99.90
28654;DHT22;24320;56.980;24.336;2023-03-12T08:49:32;4.90;99.90
28654;DHT22;24320;56.980;24.336;2023-03-12T08:51:59;4.90;99.90
28654;DHT22;24320;56.980;24.336;2023-03-12T08:54:26;4.90;99.90
28654;DHT22;24320;56.980;24.336;2023-03-12T08:56:53;4.90;99.90
28654;DHT22;24320;56.980;24.336;2023-03-12T08:59:20;4.90;99.90
28654;DHT22;24320;56.980;24.336;2023-03-12T09:01:48;5.00;99.90
28654;DHT22;24320;56.980;24.336;2023-03-12T09:04:15;5.10;99.70
28654;DHT22;24320;56.980;24.336;2023-03-12T09:06:42;5.10;99.90
28654;DHT22;24320;56.980;24.336;2023-03-12T09:09:09;5.10;99.90
28654;DHT22;24320;56.980;24.336;2023-03-12T09:11:37;5.00;99.90
28654;DHT22;24320;56.980;24.336;2023-03-12T09:14:05;4.90;99.90
28654;DHT22;24320;56.980;24.336;2023-03-12T09:16:52;4.90;99.30
28654;DHT22;24320;56.980;24.336;2023-03-12T09:19:20;4.80;99.10
28654;DHT22;24320;56.980;24.336;2023-03-12T09:21:46;4.90;99.50
28654;DHT22;24320;56.980;24.336;2023-03-12T09:24:13;4.80;98.60
28654;DHT22;24320;56.980;24.336;2023-03-12T09:26:40;4.70;97.90
28654;DHT22;24320;56.980;24.336;2023-03-12T09:29:08;4.60;98.70
28654;DHT22;24320;56.980;24.336;2023-03-12T09:31:35;4.40;99.70
28654;DHT22;24320;56.980;24.336;2023-03-12T09:34:02;4.30;99.10
28654;DHT22;24320;56.980;24.336;2023-03-12T09:36:30;4.20;99.90
28654;DHT22;24320;56.980;24.336;2023-03-12T09:38:57;4.10;99.90
28654;DHT22;24320;56.980;24.336;2023-03-12T09:41:35;4.20;99.90
28654;DHT22;24320;56.980;24.336;2023-03-12T09:46:58;4.70;99.90
28654;DHT22;24320;56.980;24.336;2023-03-12T09:49:45;4.60;99.90
28654;DHT22;24320;56.980;24.336;2023-03-12T09:52:43;4.40;99.90
28654;DHT22;24320;56.980;24.336;2023-03-12T09:55:16;4.30;99.80
28654;DHT22;24320;56.980;24.336;2023-03-12T09:57:45;4.50;99.80
28654;DHT22;24320;56.980;24.336;2023-03-12T10:00:21;4.70;99.90
28654;DHT22;24320;56.980;24.336;2023-03-12T10:11:07;3.60;99.70
28654;DHT22;24320;56.980;24.336;2023-03-12T10:27:00;3.20;97.40
28654;DHT22;24320;56.980;24.336;2023-03-12T10:29:36;2.80;97.70
28654;DHT22;24320;56.980;24.336;2023-03-12T10:32:18;2.50;99.70
28654;DHT22;24320;56.980;24.336;2023-03-12T10:34:51;2.30;99.90
28654;DHT22;24320;56.980;24.336;2023-03-12T10:37:24;2.40;99.90
28654;DHT22;24320;56.980;24.336;2023-03-12T10:39:53;2.70;99.90
28654;DHT22;24320;56.980;24.336;2023-03-12T10:42:28;2.80;99.90
28654;DHT22;24320;56.980;24.336;2023-03-12T10:45:11;2.80;99.90
28654;DHT22;24320;56.980;24.336;2023-03-12T10:47:42;2.80;99.90
28654;DHT22;24320;56.980;24.336;2023-03-12T10:50:25;2.60;99.90
28654;DHT22;24320;56.980;24.336;2023-03-12T10:55:38;2.00;99.90
28654;DHT22;24320;56.980;24.336;2023-03-12T10:58:05;1.80;99.90
28654;DHT22;24320;56.980;24.336;2023-03-12T11:00:32;1.60;99.90
28654;DHT22;24320;56.980;24.336;2023-03-12T11:03:02;1.40;99.90
28654;DHT22;24320;56.980;24.336;2023-03-12T11:05:30;1.30;99.90
28654;DHT22;24320;56.980;24.336;2023-03-12T11:08:00;1.40;99.90
28654;DHT22;24320;56.980;24.336;2023-03-12T11:10:43;1.40;99.90
28654;DHT22;24320;56.980;24.336;2023-03-12T11:13:40;1.50;99.90
28654;DHT22;24320;56.980;24.336;2023-03-12T11:19:04;1.60;99.90
28654;DHT22;24320;56.980;24.336;2023-03-12T11:21:34;1.70;99.90
28654;DHT22;24320;56.980;24.336;2023-03-12T11:24:13;1.70;99.90
28654;DHT22;24320;56.980;24.336;2023-03-12T11:26:46;1.60;99.90
28654;DHT22;24320;56.980;24.336;2023-03-12T11:29:37;1.50;99.90
28654;DHT22;24320;56.980;24.336;2023-03-12T11:34:51;1.30;99.90
28654;DHT22;24320;56.980;24.336;2023-03-12T11:42:50;1.90;99.90
28654;DHT22;24320;56.980;24.336;2023-03-12T11:48:23;2.50;99.90
28654;DHT22;24320;56.980;24.336;2023-03-12T11:53:58;2.50;99.90
28654;DHT22;24320;56.980;24.336;2023-03-12T11:56:33;2.60;99.90
28654;DHT22;24320;56.980;24.336;2023-03-12T11:59:33;2.90;99.90
28654;DHT22;24320;56.980;24.336;2023-03-12T12:02:26;3.30;99.90
28654;DHT22;24320;56.980;24.336;2023-03-12T12:18:41;4.50;99.90
28654;DHT22;24320;56.980;24.336;2023-03-12T12:28:58;4.20;99.90
28654;DHT22;24320;56.980;24.336;2023-03-12T12:31:56;4.00;99.90
28654;DHT22;24320;56.980;24.336;2023-03-12T12:42:39;4.00;99.90
28654;DHT22;24320;56.980;24.336;2023-03-12T12:45:12;4.10;99.90
28654;DHT22;24320;56.980;24.336;2023-03-12T12:48:05;4.20;99.90
28654;DHT22;24320;56.980;24.336;2023-03-12T12:50:36;4.40;99.90
28654;DHT22;24320;56.980;24.336;2023-03-12T12:55:37;4.60;99.30
28654;DHT22;24320;56.980;24.336;2023-03-12T12:58:22;4.30;99.10
28654;DHT22;24320;56.980;24.336;2023-03-12T13:00:54;4.10;99.70
28654;DHT22;24320;56.980;24.336;2023-03-12T13:03:25;4.20;99.50
28654;DHT22;24320;56.980;24.336;2023-03-12T13:05:59;4.10;99.40
28654;DHT22;24320;56.980;24.336;2023-03-12T13:11:05;3.80;99.90
28654;DHT22;24320;56.980;24.336;2023-03-12T13:13:47;3.80;99.90
28654;DHT22;24320;56.980;24.336;2023-03-12T13:16:36;4.10;99.90
28654;DHT22;24320;56.980;24.336;2023-03-12T13:22:25;3.80;99.90
28654;DHT22;24320;56.980;24.336;2023-03-12T13:27:24;4.00;99.90
28654;DHT22;24320;56.980;24.336;2023-03-12T13:29:54;3.70;99.90
28654;DHT22;24320;56.980;24.336;2023-03-12T13:38:01;3.60;99.90
28654;DHT22;24320;56.980;24.336;2023-03-12T13:48:24;3.60;99.90
28654;DHT22;24320;56.980;24.336;2023-03-12T13:50:57;3.60;99.90
28654;DHT22;24320;56.980;24.336;2023-03-12T13:53:33;3.60;99.90
28654;DHT22;24320;56.980;24.336;2023-03-12T13:56:09;3.40;99.90
28654;DHT22;24320;56.980;24.336;2023-03-12T13:59:05;3.30;99.90
28654;DHT22;24320;56.980;24.336;2023-03-12T14:01:39;3.10;99.90
28654;DHT22;24320;56.980;24.336;2023-03-12T14:04:11;3.00;99.90
28654;DHT22;24320;56.980;24.336;2023-03-12T14:12:46;2.90;99.90
28654;DHT22;24320;56.980;24.336;2023-03-12T14:15:28;3.00;99.90
28654;DHT22;24320;56.980;24.336;2023-03-12T14:18:00;3.20;99.90
28654;DHT22;24320;56.980;24.336;2023-03-12T14:20:29;3.20;99.90
28654;DHT22;24320;56.980;24.336;2023-03-12T14:23:05;3.00;99.90
28654;DHT22;24320;56.980;24.336;2023-03-12T14:25:39;2.90;99.90
28654;DHT22;24320;56.980;24.336;2023-03-12T14:28:16;2.70;99.90
28654;DHT22;24320;56.980;24.336;2023-03-12T14:31:08;2.40;99.90
28654;DHT22;24320;56.980;24.336;2023-03-12T14:33:59;2.20;99.90
28654;DHT22;24320;56.980;24.336;2023-03-12T14:36:45;2.10;99.90
28654;DHT22;24320;56.980;24.336;2023-03-12T14:42:03;1.90;99.90
28654;DHT22;24320;56.980;24.336;2023-03-12T14:44:32;2.00;99.90
28654;DHT22;24320;56.980;24.336;2023-03-12T14:47:05;1.90;99.90
28654;DHT22;24320;56.980;24.336;2023-03-12T14:49:39;1.90;99.90
28654;DHT22;24320;56.980;24.336;2023-03-12T14:52:13;1.90;99.90
28654;DHT22;24320;56.980;24.336;2023-03-12T14:57:24;1.90;99.90
28654;DHT22;24320;56.980;24.336;2023-03-12T14:59:57;1.90;99.90
28654;DHT22;24320;56.980;24.336;2023-03-12T15:02:25;1.90;99.90
28654;DHT22;24320;56.980;24.336;2023-03-12T15:04:57;1.90;99.90
28654;DHT22;24320;56.980;24.336;2023-03-12T15:07:30;1.90;99.90
28654;DHT22;24320;56.980;24.336;2023-03-12T15:09:58;1.80;99.90
28654;DHT22;24320;56.980;24.336;2023-03-12T15:12:30;1.60;99.90
28654;DHT22;24320;56.980;24.336;2023-03-12T15:17:58;1.40;99.90
28654;DHT22;24320;56.980;24.336;2023-03-12T15:20:25;1.20;99.90
28654;DHT22;24320;56.980;24.336;2023-03-12T15:22:53;1.10;99.90
28654;DHT22;24320;56.980;24.336;2023-03-12T15:25:21;0.90;99.90
28654;DHT22;24320;56.980;24.336;2023-03-12T15:28:06;0.90;99.90
28654;DHT22;24320;56.980;24.336;2023-03-12T15:30:35;0.70;99.90
28654;DHT22;24320;56.980;24.336;2023-03-12T15:33:29;0.70;99.90
28654;DHT22;24320;56.980;24.336;2023-03-12T15:35:59;0.60;99.90
28654;DHT22;24320;56.980;24.336;2023-03-12T15:38:32;0.60;99.90
28654;DHT22;24320;56.980;24.336;2023-03-12T15:41:06;0.40;99.90
28654;DHT22;24320;56.980;24.336;2023-03-12T15:43:34;0.30;99.90
28654;DHT22;24320;56.980;24.336;2023-03-12T15:46:10;0.20;99.90
28654;DHT22;24320;56.980;24.336;2023-03-12T15:48:39;0.10;99.90
28654;DHT22;24320;56.980;24.336;2023-03-12T15:51:14;0.00;99.90
28654;DHT22;24320;56.980;24.336;2023-03-12T15:54:03;0.00;99.90
28654;DHT22;24320;56.980;24.336;2023-03-12T15:56:32;-0.10;99.90
28654;DHT22;24320;56.980;24.336;2023-03-12T15:59:18;-0.20;99.90
28654;DHT22;24320;56.980;24.336;2023-03-12T16:01:49;-0.30;99.90
28654;DHT22;24320;56.980;24.336;2023-03-12T16:04:16;-0.40;99.90
28654;DHT22;24320;56.980;24.336;2023-03-12T16:06:45;-0.60;99.90
28654;DHT22;24320;56.980;24.336;2023-03-12T16:09:18;-0.70;99.90
28654;DHT22;24320;56.980;24.336;2023-03-12T16:11:47;-0.90;99.90
28654;DHT22;24320;56.980;24.336;2023-03-12T16:14:18;-1.00;99.90
28654;DHT22;24320;56.980;24.336;2023-03-12T16:16:46;-1.10;99.90
28654;DHT22;24320;56.980;24.336;2023-03-12T16:19:15;-1.30;99.90
28654;DHT22;24320;56.980;24.336;2023-03-12T16:21:43;-1.40;99.90
28654;DHT22;24320;56.980;24.336;2023-03-12T16:24:10;-1.50;99.90
28654;DHT22;24320;56.980;24.336;2023-03-12T16:26:48;-1.60;99.90
28654;DHT22;24320;56.980;24.336;2023-03-12T16:29:17;-1.70;99.90
28654;DHT22;24320;56.980;24.336;2023-03-12T16:31:49;-1.80;99.90
28654;DHT22;24320;56.980;24.336;2023-03-12T16:34:17;-1.90;99.90
28654;DHT22;24320;56.980;24.336;2023-03-12T16:36:44;-2.00;99.90
28654;DHT22;24320;56.980;24.336;2023-03-12T16:39:11;-2.10;99.90
28654;DHT22;24320;56.980;24.336;2023-03-12T16:41:38;-2.20;99.90
28654;DHT22;24320;56.980;24.336;2023-03-12T16:44:07;-2.30;99.90
28654;DHT22;24320;56.980;24.336;2023-03-12T16:46:35;-2.30;99.90
28654;DHT22;24320;56.980;24.336;2023-03-12T16:49:03;-2.40;99.90
28654;DHT22;24320;56.980;24.336;2023-03-12T16:51:30;-2.50;99.90
28654;DHT22;24320;56.980;24.336;2023-03-12T16:53:57;-2.60;99.90
28654;DHT22;24320;56.980;24.336;2023-03-12T16:56:37;-2.60;99.90
28654;DHT22;24320;56.980;24.336;2023-03-12T16:59:13;-2.60;99.90
28654;DHT22;24320;56.980;24.336;2023-03-12T17:01:42;-2.70;99.90
28654;DHT22;24320;56.980;24.336;2023-03-12T17:04:10;-2.60;99.90
28654;DHT22;24320;56.980;24.336;2023-03-12T17:06:37;-2.60;99.90
28654;DHT22;24320;56.980;24.336;2023-03-12T17:09:06;-2.70;99.90
28654;DHT22;24320;56.980;24.336;2023-03-12T17:11:35;-2.70;99.90
28654;DHT22;24320;56.980;24.336;2023-03-12T17:14:19;-2.70;99.90
28654;DHT22;24320;56.980;24.336;2023-03-12T17:16:47;-2.80;99.90
28654;DHT22;24320;56.980;24.336;2023-03-12T17:19:14;-2.90;99.90
28654;DHT22;24320;56.980;24.336;2023-03-12T17:21:42;-2.90;99.90
28654;DHT22;24320;56.980;24.336;2023-03-12T17:24:10;-3.00;99.90
28654;DHT22;24320;56.980;24.336;2023-03-12T17:26:40;-3.00;99.90
28654;DHT22;24320;56.980;24.336;2023-03-12T17:29:07;-3.00;99.90
28654;DHT22;24320;56.980;24.336;2023-03-12T17:31:35;-3.10;99.90
28654;DHT22;24320;56.980;24.336;2023-03-12T17:34:03;-3.10;99.90
28654;DHT22;24320;56.980;24.336;2023-03-12T17:36:30;-3.00;99.90
28654;DHT22;24320;56.980;24.336;2023-03-12T17:38:57;-3.00;99.90
28654;DHT22;24320;56.980;24.336;2023-03-12T17:41:24;-3.00;99.90
28654;DHT22;24320;56.980;24.336;2023-03-12T17:43:53;-3.00;99.90
28654;DHT22;24320;56.980;24.336;2023-03-12T17:46:21;-2.90;99.90
28654;DHT22;24320;56.980;24.336;2023-03-12T17:48:48;-2.80;99.90